createdAt,value
2022-08-22T00:00:16.312Z,12.13
2022-08-22T00:02:59.616Z,13.10
2022-08-22T00:03:39.937Z,12.40
2022-08-22T00:06:57.474Z,12.57
2022-08-22T00:10:11.110Z,10.57
2022-08-22T00:13:24.419Z,15.77
2022-08-22T00:16:42.606Z,13.13
2022-08-22T00:20:04.119Z,12.18
2022-08-22T00:23:17.816Z,11.77
2022-08-22T00:26:33.845Z,13.27
2022-08-22T00:29:54.348Z,11.60
2022-08-22T00:33:05.056Z,10.68
2022-08-22T00:36:18.059Z,11.38
2022-08-22T00:39:28.526Z,14.75
2022-08-22T00:43:20.101Z,12.68
2022-08-22T00:46:43.343Z,13.23
2022-08-22T00:49:48.800Z,15.65
2022-08-22T00:53:09.257Z,14.90
2022-08-22T00:56:35.266Z,15.05
2022-08-22T00:59:43.928Z,14.82
2022-08-22T01:03:07.635Z,18.27
2022-08-22T01:06:34.498Z,17.50
2022-08-22T01:10:01.232Z,14.55
2022-08-22T01:13:24.190Z,12.55
2022-08-22T01:16:35.264Z,17.67
2022-08-22T01:20:10.832Z,11.53
2022-08-22T01:23:44.749Z,13.98
2022-08-22T01:27:12.837Z,13.57
2022-08-22T01:30:18.733Z,15.20
2022-08-22T01:33:38.571Z,16.55
2022-08-22T01:37:04.496Z,18.93
2022-08-22T01:40:27.158Z,16.45
2022-08-22T01:43:59.095Z,15.48
2022-08-22T01:47:16.727Z,17.05
2022-08-22T01:50:57.585Z,19.48
2022-08-22T01:54:12.186Z,17.30
2022-08-22T01:57:15.187Z,20.35
2022-08-22T02:00:34.618Z,17.85
2022-08-22T02:03:57.833Z,14.05
2022-08-22T02:07:31.873Z,13.68
2022-08-22T02:10:53.900Z,14.43
2022-08-22T02:14:14.047Z,13.98
2022-08-22T02:17:33.035Z,15.48
2022-08-22T02:20:47.565Z,15.05
2022-08-22T02:24:03.151Z,15.57
2022-08-22T02:27:23.851Z,17.13
2022-08-22T02:31:16.709Z,16.52
2022-08-22T02:34:27.823Z,16.40
2022-08-22T02:37:35.660Z,17.92
2022-08-22T02:40:44.422Z,16.00
2022-08-22T02:43:49.622Z,19.07
2022-08-22T02:47:16.508Z,16.85
2022-08-22T02:50:35.834Z,20.02
2022-08-22T02:53:44.562Z,19.00
2022-08-22T02:56:58.929Z,20.30
2022-08-22T03:00:31.845Z,18.97
2022-08-22T03:03:41.386Z,19.25
2022-08-22T03:06:59.910Z,18.60
2022-08-22T03:10:16.179Z,16.75
2022-08-22T03:13:33.615Z,19.52
2022-08-22T03:16:55.230Z,17.47
2022-08-22T03:20:36.206Z,19.42
2022-08-22T03:23:44.089Z,16.85
2022-08-22T03:27:02.689Z,16.20
2022-08-22T03:30:33.218Z,17.02
2022-08-22T03:33:35.375Z,17.07
2022-08-22T03:36:37.765Z,17.48
2022-08-22T03:39:54.779Z,16.27
2022-08-22T03:43:05.696Z,19.27
2022-08-22T03:46:19.888Z,15.82
2022-08-22T03:49:40.084Z,15.53
2022-08-22T03:53:19.484Z,17.83
2022-08-22T03:56:27.369Z,16.90
2022-08-22T03:59:48.111Z,19.23
2022-08-22T04:03:28.747Z,16.73
2022-08-22T04:06:40.760Z,19.00
2022-08-22T04:09:51.032Z,17.52
2022-08-22T04:13:15.550Z,18.08
2022-08-22T04:16:20.857Z,18.75
2022-08-22T04:19:48.391Z,20.33
2022-08-22T04:23:12.094Z,21.23
2022-08-22T04:26:40.885Z,21.60
2022-08-22T04:29:54.965Z,17.40
2022-08-22T04:33:14.424Z,21.15
2022-08-22T04:36:23.253Z,19.33
2022-08-22T04:39:48.310Z,19.47
2022-08-22T04:42:57.132Z,24.73
2022-08-22T04:46:09.231Z,25.63
2022-08-22T04:49:19.766Z,25.55
2022-08-22T04:52:43.674Z,25.15
2022-08-22T04:55:54.713Z,24.43
2022-08-22T04:59:11.685Z,24.02
2022-08-22T05:02:22.389Z,21.42
2022-08-22T05:05:31.487Z,26.80
2022-08-22T05:08:37.624Z,25.92
2022-08-22T05:11:42.505Z,27.03
2022-08-22T05:14:51.735Z,25.60
2022-08-22T05:18:00.480Z,25.08
2022-08-22T05:21:07.534Z,27.80
2022-08-22T05:24:14.991Z,23.20
2022-08-22T05:27:22.711Z,25.47
2022-08-22T05:30:28.546Z,31.27
2022-08-22T05:33:34.279Z,25.02
2022-08-22T05:36:43.412Z,26.90
2022-08-22T05:39:49.117Z,29.63
2022-08-22T05:42:52.599Z,22.73
2022-08-22T05:45:58.499Z,21.20
2022-08-22T05:49:03.124Z,26.30
2022-08-22T05:52:07.097Z,26.65
2022-08-22T05:55:17.307Z,26.17
2022-08-22T05:59:00.166Z,25.37
2022-08-22T06:02:12.783Z,26.13
2022-08-22T06:05:25.294Z,22.52
2022-08-22T06:08:36.209Z,24.73
2022-08-22T06:12:04.257Z,22.90
2022-08-22T06:15:20.823Z,21.37
2022-08-22T06:18:26.790Z,23.92
2022-08-22T06:21:39.220Z,23.42
2022-08-22T06:24:42.299Z,25.38
2022-08-22T06:27:49.154Z,24.92
2022-08-22T06:30:54.807Z,24.90
2022-08-22T06:34:09.467Z,24.33
2022-08-22T06:37:20.265Z,24.05
2022-08-22T06:40:23.070Z,21.58
2022-08-22T06:43:26.065Z,25.75
2022-08-22T06:46:30.807Z,22.63
2022-08-22T06:49:35.553Z,22.77
2022-08-22T06:52:51.094Z,21.83
2022-08-22T06:55:59.331Z,25.38
2022-08-22T06:59:06.292Z,23.08
2022-08-22T07:02:22.175Z,25.73
2022-08-22T07:05:28.389Z,24.35
2022-08-22T07:08:38.904Z,20.92
2022-08-22T07:11:42.400Z,21.60
2022-08-22T07:14:49.639Z,21.20
2022-08-22T07:17:57.719Z,19.50
2022-08-22T07:21:04.857Z,23.92
2022-08-22T07:24:09.010Z,20.17
2022-08-22T07:27:27.943Z,20.48
2022-08-22T07:30:56.253Z,19.00
2022-08-22T07:34:29.585Z,18.37
2022-08-22T07:38:04.389Z,18.90
2022-08-22T07:41:15.420Z,20.17
2022-08-22T07:44:22.782Z,20.23
2022-08-22T07:47:49.960Z,20.95
2022-08-22T07:51:07.550Z,20.03
2022-08-22T07:54:19.408Z,19.80
2022-08-22T07:57:29.423Z,19.60
2022-08-22T08:00:34.440Z,18.98
2022-08-22T08:03:38.935Z,15.60
2022-08-22T08:06:42.607Z,16.90
2022-08-22T08:09:51.769Z,16.08
2022-08-22T08:13:02.408Z,17.42
2022-08-22T08:16:09.345Z,17.63
2022-08-22T08:19:13.481Z,16.40
2022-08-22T08:22:20.166Z,16.37
2022-08-22T08:25:28.913Z,19.52
2022-08-22T08:28:34.273Z,18.45
2022-08-22T08:31:43.117Z,16.77
2022-08-22T08:34:47.239Z,16.33
2022-08-22T08:38:15.620Z,16.20
2022-08-22T08:41:46.346Z,18.85
2022-08-22T08:45:31.811Z,14.77
2022-08-22T08:48:46.223Z,18.83
2022-08-22T08:52:10.422Z,16.65
2022-08-22T08:55:53.893Z,17.60
2022-08-22T08:59:36.193Z,16.70
2022-08-22T09:02:52.465Z,14.80
2022-08-22T09:06:13.075Z,16.77
2022-08-22T09:09:22.716Z,16.70
2022-08-22T09:12:56.110Z,15.17
2022-08-22T09:16:29.601Z,17.52
2022-08-22T09:20:00.736Z,17.02
2022-08-22T09:23:10.024Z,16.35
2022-08-22T09:26:22.853Z,16.85
2022-08-22T09:30:05.057Z,17.00
2022-08-22T09:33:14.786Z,17.88
2022-08-22T09:36:41.135Z,16.95
2022-08-22T09:40:10.481Z,19.33
2022-08-22T09:43:29.500Z,18.08
2022-08-22T09:46:57.614Z,18.10
2022-08-22T09:50:24.753Z,19.38
2022-08-22T09:53:56.369Z,18.13
2022-08-22T09:57:23.196Z,19.35
2022-08-22T10:00:55.290Z,19.83
2022-08-22T10:04:40.602Z,17.20
2022-08-22T10:08:05.903Z,19.65
2022-08-22T10:11:32.732Z,17.75
2022-08-22T10:15:03.027Z,17.55
2022-08-22T10:18:29.677Z,21.15
2022-08-22T10:21:46.305Z,17.43
2022-08-22T10:24:58.576Z,16.77
2022-08-22T10:28:10.610Z,15.80
2022-08-22T10:31:34.625Z,21.35
2022-08-22T10:34:50.656Z,15.20
2022-08-22T10:38:25.013Z,18.20
2022-08-22T10:41:39.567Z,18.13
2022-08-22T10:45:15.436Z,17.27
2022-08-22T10:48:35.670Z,15.63
2022-08-22T10:51:47.890Z,18.02
2022-08-22T10:55:09.918Z,14.83
2022-08-22T10:58:16.483Z,18.27
2022-08-22T11:01:37.439Z,14.70
2022-08-22T11:05:09.797Z,14.65
2022-08-22T11:08:21.819Z,15.45
2022-08-22T11:11:33.067Z,13.50
2022-08-22T11:15:28.450Z,12.70
2022-08-22T11:19:15.552Z,14.05
2022-08-22T11:22:36.199Z,15.18
2022-08-22T11:25:41.280Z,12.63
2022-08-22T11:29:13.333Z,13.93
2022-08-22T11:32:49.652Z,14.93
2022-08-22T11:36:26.245Z,14.18
2022-08-22T11:40:07.601Z,13.82
2022-08-22T11:43:18.420Z,12.95
2022-08-22T11:46:23.487Z,11.67
2022-08-22T11:49:27.630Z,13.07
2022-08-22T11:52:54.841Z,13.43
2022-08-22T11:55:59.649Z,12.38
2022-08-22T11:59:22.559Z,13.93
2022-08-22T12:02:31.149Z,11.93
2022-08-22T12:05:42.936Z,13.93
2022-08-22T12:09:12.852Z,12.60
2022-08-22T12:12:42.380Z,14.05
2022-08-22T12:16:15.258Z,14.00
2022-08-22T12:19:17.176Z,13.47
2022-08-22T12:22:50.013Z,15.65
2022-08-22T12:26:13.954Z,13.32
2022-08-22T12:29:54.152Z,17.10
2022-08-22T12:33:37.322Z,18.33
2022-08-22T12:36:59.415Z,16.73
2022-08-22T12:40:32.374Z,17.30
2022-08-22T12:44:17.321Z,17.65
2022-08-22T12:47:50.640Z,17.45
2022-08-22T12:51:18.625Z,14.27
2022-08-22T12:54:59.803Z,16.30
2022-08-22T12:58:17.715Z,15.80
2022-08-22T13:01:20.591Z,14.60
2022-08-22T13:04:34.297Z,14.57
2022-08-22T13:07:38.452Z,13.77
2022-08-22T13:10:51.156Z,14.80
2022-08-22T13:14:00.450Z,14.75
2022-08-22T13:17:23.603Z,14.02
2022-08-22T13:20:41.399Z,15.02
2022-08-22T13:23:50.787Z,16.33
2022-08-22T13:26:58.812Z,17.83
2022-08-22T13:30:13.379Z,16.65
2022-08-22T13:33:23.595Z,17.60
2022-08-22T13:36:26.903Z,16.05
2022-08-22T13:39:34.155Z,15.68
2022-08-22T13:42:45.547Z,17.73
2022-08-22T13:45:56.240Z,15.98
2022-08-22T13:49:01.741Z,14.43
2022-08-22T13:52:29.091Z,18.50
2022-08-22T13:55:56.891Z,15.27
2022-08-22T13:59:05.952Z,17.27
2022-08-22T14:02:18.074Z,16.77
2022-08-22T14:05:41.108Z,14.15
2022-08-22T14:08:45.861Z,16.65
2022-08-22T14:11:58.716Z,16.42
2022-08-22T14:15:05.180Z,18.13
2022-08-22T14:18:13.568Z,13.75
2022-08-22T14:21:16.392Z,13.23
2022-08-22T14:24:48.923Z,13.32
2022-08-22T14:28:06.369Z,14.80
2022-08-22T14:31:14.371Z,17.13
2022-08-22T14:34:17.052Z,18.70
2022-08-22T14:37:27.890Z,15.60
2022-08-22T14:40:34.000Z,16.23
2022-08-22T14:43:49.630Z,18.00
2022-08-22T14:47:00.826Z,18.43
2022-08-22T14:50:11.173Z,19.52
2022-08-22T14:53:20.017Z,15.93
2022-08-22T14:56:29.927Z,16.27
2022-08-22T14:59:44.235Z,15.50
2022-08-22T15:02:46.582Z,17.10
2022-08-22T15:05:55.068Z,17.52
2022-08-22T15:08:57.910Z,16.55
2022-08-22T15:12:03.747Z,15.98
2022-08-22T15:15:27.301Z,18.65
2022-08-22T15:18:29.364Z,17.03
2022-08-22T15:21:33.699Z,16.52
2022-08-22T15:24:49.547Z,22.95
2022-08-22T15:28:20.919Z,22.05
2022-08-22T15:31:23.758Z,17.55
2022-08-22T15:34:43.715Z,14.57
2022-08-22T15:37:57.485Z,17.02
2022-08-22T15:41:36.607Z,16.90
2022-08-22T15:44:44.173Z,16.27
2022-08-22T15:47:53.088Z,17.08
2022-08-22T15:51:11.146Z,17.63
2022-08-22T15:54:24.873Z,15.75
2022-08-22T15:57:40.312Z,16.90
2022-08-22T16:00:45.664Z,15.60
2022-08-22T16:03:56.379Z,18.20
2022-08-22T16:07:01.294Z,19.67
2022-08-22T16:10:11.121Z,17.83
2022-08-22T16:13:31.235Z,17.42
2022-08-22T16:16:45.330Z,18.27
2022-08-22T16:19:47.429Z,17.52
2022-08-22T16:23:12.862Z,20.40
2022-08-22T16:26:36.845Z,16.13
2022-08-22T16:29:41.894Z,17.73
2022-08-22T16:32:53.333Z,19.88
2022-08-22T16:36:15.160Z,16.90
2022-08-22T16:39:22.901Z,14.80
2022-08-22T16:42:35.715Z,17.25
2022-08-22T16:45:48.617Z,17.05
2022-08-22T16:49:01.240Z,18.55
2022-08-22T16:52:22.195Z,18.95
2022-08-22T16:55:30.159Z,16.33
2022-08-22T16:59:03.326Z,17.02
2022-08-22T17:02:42.487Z,16.13
2022-08-22T17:06:01.802Z,17.63
2022-08-22T17:09:16.956Z,17.35
2022-08-22T17:12:49.074Z,15.90
2022-08-22T17:15:54.114Z,19.75
2022-08-22T17:19:19.019Z,20.50
2022-08-22T17:22:49.618Z,21.25
2022-08-22T17:26:09.737Z,19.13
2022-08-22T17:29:39.493Z,22.90
2022-08-22T17:33:09.438Z,17.65
2022-08-22T17:36:36.666Z,17.85
2022-08-22T17:39:49.950Z,18.15
2022-08-22T17:43:21.776Z,18.27
2022-08-22T17:46:44.756Z,18.13
2022-08-22T17:49:59.356Z,14.18
2022-08-22T17:53:11.126Z,15.55
2022-08-22T17:56:27.648Z,15.07
2022-08-22T17:59:37.324Z,13.52
2022-08-22T18:02:50.825Z,11.00
2022-08-22T18:06:22.784Z,11.93
2022-08-22T18:09:37.691Z,11.40
2022-08-22T18:12:53.670Z,8.98
2022-08-22T18:16:02.057Z,8.68
2022-08-22T18:19:10.137Z,7.37
2022-08-22T18:22:22.022Z,8.20
2022-08-22T18:25:36.427Z,8.43
2022-08-22T18:28:53.221Z,8.23
2022-08-22T18:32:08.956Z,7.57
2022-08-22T18:35:31.419Z,9.67
2022-08-22T18:38:49.957Z,7.47
2022-08-22T18:42:02.388Z,6.43
2022-08-22T18:45:06.168Z,8.07
2022-08-22T18:48:08.254Z,7.72
2022-08-22T18:51:30.555Z,8.20
2022-08-22T18:55:05.762Z,8.13
2022-08-22T18:58:07.784Z,7.10
2022-08-22T19:01:31.093Z,6.43
2022-08-22T19:04:56.185Z,6.45
2022-08-22T19:08:16.704Z,7.07
2022-08-22T19:11:46.741Z,9.27
2022-08-22T19:15:04.671Z,11.07
2022-08-22T19:18:36.346Z,9.60
2022-08-22T19:21:56.986Z,8.88
2022-08-22T19:25:05.787Z,7.60
2022-08-22T19:28:11.339Z,8.35
2022-08-22T19:31:35.402Z,6.75
2022-08-22T19:34:47.068Z,7.05
2022-08-22T19:37:54.792Z,9.15
2022-08-22T19:40:58.395Z,6.97
2022-08-22T19:44:00.988Z,7.97
2022-08-22T19:47:18.214Z,7.93
2022-08-22T19:50:21.279Z,8.30
2022-08-22T19:54:00.228Z,7.95
2022-08-22T19:57:19.825Z,7.77
2022-08-22T20:00:43.175Z,10.77
2022-08-22T20:03:54.570Z,9.77
2022-08-22T20:07:22.684Z,8.13
2022-08-22T20:10:48.678Z,9.73
2022-08-22T20:13:51.267Z,10.40
2022-08-22T20:16:59.039Z,10.00
2022-08-22T20:20:24.125Z,8.60
2022-08-22T20:23:37.514Z,8.30
2022-08-22T20:26:57.523Z,8.63
2022-08-22T20:30:07.586Z,9.43
2022-08-22T20:33:12.735Z,10.23
2022-08-22T20:36:27.641Z,9.20
2022-08-22T20:40:43.927Z,8.25
2022-08-22T20:43:51.532Z,8.15
2022-08-22T20:46:58.182Z,7.60
2022-08-22T20:50:03.292Z,6.80
2022-08-22T20:53:12.728Z,9.65
2022-08-22T20:56:14.716Z,7.22
2022-08-22T20:59:36.005Z,7.75
2022-08-22T21:02:45.620Z,7.07
2022-08-22T21:05:47.752Z,7.15
2022-08-22T21:09:12.542Z,7.00
2022-08-22T21:12:15.036Z,8.70
2022-08-22T21:15:30.111Z,8.75
2022-08-22T21:18:38.804Z,9.00
2022-08-22T21:21:40.795Z,8.23
2022-08-22T21:24:42.891Z,11.85
2022-08-22T21:27:48.741Z,12.63
2022-08-22T21:30:50.747Z,16.35
2022-08-22T21:33:55.408Z,14.83
2022-08-22T21:37:08.585Z,13.25
2022-08-22T21:40:15.156Z,13.02
2022-08-22T21:43:37.622Z,15.90
2022-08-22T21:46:39.660Z,16.50
2022-08-22T21:50:13.490Z,19.30
2022-08-22T21:53:30.381Z,18.77
2022-08-22T21:56:32.292Z,24.52
2022-08-22T21:59:51.934Z,21.48
2022-08-22T22:03:02.854Z,23.08
2022-08-22T22:06:06.715Z,22.77
2022-08-22T22:09:12.043Z,22.27
2022-08-22T22:12:17.072Z,22.52
2022-08-22T22:15:22.884Z,24.67
2022-08-22T22:18:31.253Z,26.45
2022-08-22T22:21:33.240Z,23.57
2022-08-22T22:24:35.226Z,25.10
2022-08-22T22:27:37.477Z,24.40
2022-08-22T22:30:40.109Z,25.40
2022-08-22T22:33:43.245Z,29.20
2022-08-22T22:36:45.572Z,26.10
2022-08-22T22:39:47.641Z,24.63
2022-08-22T22:42:50.155Z,23.67
2022-08-22T22:45:52.254Z,28.30
2022-08-22T22:48:55.603Z,28.83
2022-08-22T22:51:58.998Z,26.20
2022-08-22T22:55:01.337Z,27.30
2022-08-22T22:58:04.767Z,30.17
2022-08-22T23:01:22.733Z,26.40
2022-08-22T23:04:25.011Z,31.25
2022-08-22T23:07:27.718Z,28.63
2022-08-22T23:10:31.435Z,28.23
2022-08-22T23:13:35.254Z,26.65
2022-08-22T23:16:41.687Z,32.65
2022-08-22T23:19:44.170Z,29.83
2022-08-22T23:22:50.093Z,31.37
2022-08-22T23:25:52.402Z,29.25
2022-08-22T23:28:54.683Z,24.80
2022-08-22T23:32:00.078Z,28.30
2022-08-22T23:35:01.989Z,29.40
2022-08-22T23:38:04.111Z,30.90
2022-08-22T23:41:09.897Z,26.35
2022-08-22T23:44:14.337Z,27.30
2022-08-22T23:47:16.602Z,26.63
2022-08-22T23:50:18.659Z,25.90
2022-08-22T23:53:20.559Z,28.23
2022-08-22T23:56:27.348Z,24.58
2022-08-22T23:59:35.857Z,26.13
